Time;durP1;ratioP1;P1;durP2;ratioP2;P2;SDS_P1;SDS_P2;PMS_P1;PMS_P2;Temp;Humidity;BMP_temperature;BMP_pressure;BME280_temperature;BME280_humidity;BME280_pressure;Samples;Min_cycle;Max_cycle;Signal;HPM_P1;HPM_P2
2024/01/31 00:00:09;;;;;;;37.42;22.48;;;;;;;;;;7374991;19;20026;-82
2024/01/31 00:02:36;;;;;;;44.35;23.73;;;;;;;;;;7374072;19;20026;-81
2024/01/31 00:05:02;;;;;;;40.58;23.65;;;;;;;;;;7390527;19;20015;-82
2024/01/31 00:07:28;;;;;;;38.33;23.70;;;;;;;;;;7369243;19;20164;-81
2024/01/31 00:09:53;;;;;;;42.30;24.48;;;;;;;;;;7369303;19;20021;-82
2024/01/31 00:12:18;;;;;;;40.65;24.65;;;;;;;;;;7367080;19;20007;-82
2024/01/31 00:14:44;;;;;;;34.92;23.38;;;;;;;;;;7366000;19;20014;-82
2024/01/31 00:17:09;;;;;;;40.15;24.75;;;;;;;;;;7390112;19;20103;-82
2024/01/31 00:19:35;;;;;;;41.08;22.67;;;;;;;;;;7367665;19;20547;-82
2024/01/31 00:22:00;;;;;;;35.80;22.30;;;;;;;;;;7368895;19;20500;-82
2024/01/31 00:24:26;;;;;;;31.75;21.77;;;;;;;;;;7370776;19;20517;-82
2024/01/31 00:26:51;;;;;;;36.85;21.95;;;;;;;;;;7387129;19;20062;-82
2024/01/31 00:29:16;;;;;;;32.47;20.50;;;;;;;;;;7412065;19;20448;-82
2024/01/31 00:31:42;;;;;;;41.38;24.90;;;;;;;;;;7396874;19;20009;-82
2024/01/31 00:34:07;;;;;;;41.00;23.70;;;;;;;;;;7400258;19;20010;-82
2024/01/31 00:36:32;;;;;;;35.08;22.60;;;;;;;;;;7393917;19;20089;-82
2024/01/31 00:38:59;;;;;;;34.80;21.95;;;;;;;;;;7379323;19;20114;-82
2024/01/31 00:41:25;;;;;;;34.72;21.67;;;;;;;;;;7380906;19;20443;-82
2024/01/31 00:43:50;;;;;;;35.75;21.83;;;;;;;;;;7402859;19;20010;-83
2024/01/31 00:46:16;;;;;;;38.08;21.98;;;;;;;;;;7376822;19;20015;-83
2024/01/31 00:48:43;;;;;;;35.00;22.42;;;;;;;;;;7371891;19;20018;-82
2024/01/31 00:51:11;;;;;;;36.78;21.02;;;;;;;;;;7373184;19;20486;-82
2024/01/31 00:53:38;;;;;;;34.15;21.48;;;;;;;;;;7370507;19;20002;-82
2024/01/31 00:56:04;;;;;;;34.08;22.50;;;;;;;;;;7398070;19;20017;-82
2024/01/31 00:58:29;;;;;;;42.65;22.33;;;;;;;;;;7376804;19;20499;-82
2024/01/31 01:00:54;;;;;;;34.35;22.15;;;;;;;;;;7376445;19;20006;-82
2024/01/31 01:03:20;;;;;;;36.85;22.35;;;;;;;;;;7375062;19;20138;-82
2024/01/31 01:05:45;;;;;;;35.38;22.48;;;;;;;;;;7375404;19;20022;-82
2024/01/31 01:08:11;;;;;;;36.55;22.10;;;;;;;;;;7399775;19;20006;-83
2024/01/31 01:10:36;;;;;;;35.17;22.73;;;;;;;;;;7390548;19;20113;-82
2024/01/31 01:13:02;;;;;;;31.77;22.15;;;;;;;;;;7401110;19;20010;-83
2024/01/31 01:15:27;;;;;;;38.88;22.60;;;;;;;;;;7392327;19;20017;-82
2024/01/31 01:17:53;;;;;;;37.33;22.52;;;;;;;;;;7376400;19;19998;-82
2024/01/31 01:20:18;;;;;;;43.22;23.35;;;;;;;;;;7396633;19;20099;-82
2024/01/31 01:22:43;;;;;;;38.50;23.15;;;;;;;;;;7374955;19;20493;-83
2024/01/31 01:25:10;;;;;;;35.33;22.25;;;;;;;;;;7374171;19;20006;-82
2024/01/31 01:27:35;;;;;;;35.55;22.63;;;;;;;;;;7376284;19;19998;-82
2024/01/31 01:30:00;;;;;;;33.17;21.85;;;;;;;;;;7374266;19;20017;-82
2024/01/31 01:32:26;;;;;;;34.17;22.65;;;;;;;;;;7374952;19;20747;-81
2024/01/31 01:34:51;;;;;;;34.92;22.40;;;;;;;;;;7394823;19;19995;-82
2024/01/31 01:37:17;;;;;;;40.17;22.80;;;;;;;;;;7373922;19;20607;-82
2024/01/31 01:39:44;;;;;;;38.25;22.52;;;;;;;;;;7372937;19;20449;-82
2024/01/31 01:42:09;;;;;;;34.30;20.92;;;;;;;;;;7372980;19;20025;-82
2024/01/31 01:44:42;;;;;;;38.25;22.70;;;;;;;;;;7372139;19;20508;-82
2024/01/31 01:47:08;;;;;;;34.65;23.30;;;;;;;;;;7395306;19;20010;-81
2024/01/31 01:49:34;;;;;;;40.38;23.17;;;;;;;;;;7372868;19;20005;-81
2024/01/31 01:51:59;;;;;;;32.50;21.98;;;;;;;;;;7373135;19;20432;-81
2024/01/31 01:54:25;;;;;;;40.17;21.95;;;;;;;;;;7372193;19;20089;-81
2024/01/31 01:56:51;;;;;;;36.15;23.08;;;;;;;;;;7374688;19;20015;-81
2024/01/31 01:59:16;;;;;;;33.03;20.83;;;;;;;;;;7394521;19;20019;-81
2024/01/31 02:01:43;;;;;;;36.45;21.85;;;;;;;;;;7373156;19;20007;-81
2024/01/31 02:04:09;;;;;;;34.95;21.90;;;;;;;;;;7370704;19;20014;-81
2024/01/31 02:06:34;;;;;;;36.28;20.90;;;;;;;;;;7369143;19;20014;-82
2024/01/31 02:09:00;;;;;;;33.85;22.35;;;;;;;;;;7371231;19;20006;-82
2024/01/31 02:11:25;;;;;;;35.20;21.45;;;;;;;;;;7374813;19;20027;-83
2024/01/31 02:13:51;;;;;;;35.72;22.27;;;;;;;;;;7392447;19;20002;-81
2024/01/31 02:16:16;;;;;;;31.45;20.45;;;;;;;;;;7372523;19;20006;-82
2024/01/31 02:18:41;;;;;;;34.80;20.85;;;;;;;;;;7371447;19;20467;-82
2024/01/31 02:21:07;;;;;;;34.28;20.95;;;;;;;;;;7370479;19;20499;-82
2024/01/31 02:23:32;;;;;;;32.78;20.40;;;;;;;;;;7374971;19;20083;-82
2024/01/31 02:25:57;;;;;;;36.97;21.85;;;;;;;;;;7402751;19;20003;-82
2024/01/31 02:28:23;;;;;;;36.72;21.48;;;;;;;;;;7375610;19;20346;-82
2024/01/31 02:30:49;;;;;;;30.52;20.70;;;;;;;;;;7374070;19;20046;-82
2024/01/31 02:33:14;;;;;;;30.60;19.58;;;;;;;;;;7373391;19;20472;-82
2024/01/31 02:35:39;;;;;;;26.90;19.70;;;;;;;;;;7373815;19;20000;-82
2024/01/31 02:38:05;;;;;;;34.67;19.15;;;;;;;;;;7395698;19;20002;-82
2024/01/31 02:40:30;;;;;;;36.35;20.88;;;;;;;;;;7371047;19;20003;-81
2024/01/31 02:42:57;;;;;;;25.98;16.23;;;;;;;;;;7372697;19;20014;-81
2024/01/31 02:45:25;;;;;;;25.65;14.43;;;;;;;;;;7373638;19;20006;-81
2024/01/31 02:47:51;;;;;;;22.20;13.68;;;;;;;;;;7374439;19;20094;-81
2024/01/31 02:50:16;;;;;;;17.10;10.70;;;;;;;;;;7395221;19;20010;-81
2024/01/31 02:52:42;;;;;;;14.50;8.80;;;;;;;;;;7371720;19;20003;-81
2024/01/31 02:55:08;;;;;;;15.18;7.35;;;;;;;;;;7371451;19;19991;-81
2024/01/31 02:57:34;;;;;;;14.77;6.53;;;;;;;;;;7374075;19;20063;-81
2024/01/31 03:00:00;;;;;;;12.90;6.35;;;;;;;;;;7382309;19;20003;-81
2024/01/31 03:02:26;;;;;;;10.98;6.30;;;;;;;;;;7401183;19;20000;-82
2024/01/31 03:04:51;;;;;;;11.05;5.70;;;;;;;;;;7423726;19;20054;-81
2024/01/31 03:07:16;;;;;;;10.68;5.47;;;;;;;;;;7389713;19;20749;-81
2024/01/31 03:09:42;;;;;;;10.85;5.30;;;;;;;;;;7374561;19;20003;-81
2024/01/31 03:12:07;;;;;;;8.48;4.82;;;;;;;;;;7373794;19;20503;-81
2024/01/31 03:14:34;;;;;;;11.25;4.53;;;;;;;;;;7375330;19;19999;-81
2024/01/31 03:17:00;;;;;;;9.90;4.95;;;;;;;;;;7401192;19;20409;-81
2024/01/31 03:19:29;;;;;;;10.07;4.55;;;;;;;;;;7398316;19;19999;-81
2024/01/31 03:21:55;;;;;;;10.43;4.63;;;;;;;;;;7402250;19;19998;-80
2024/01/31 03:24:23;;;;;;;9.90;4.35;;;;;;;;;;7400679;19;20010;-81
2024/01/31 03:26:49;;;;;;;9.18;3.70;;;;;;;;;;7400088;19;20007;-81
2024/01/31 03:29:14;;;;;;;7.68;4.15;;;;;;;;;;7422325;19;20007;-80
2024/01/31 03:31:39;;;;;;;6.75;4.05;;;;;;;;;;7393637;19;20036;-81
2024/01/31 03:34:05;;;;;;;11.00;4.57;;;;;;;;;;7387874;19;20338;-81
2024/01/31 03:36:30;;;;;;;10.80;4.00;;;;;;;;;;7388074;19;20021;-81
2024/01/31 03:38:58;;;;;;;10.38;4.07;;;;;;;;;;7375032;19;20010;-81
2024/01/31 03:41:24;;;;;;;7.93;3.92;;;;;;;;;;7377939;19;20010;-81
2024/01/31 03:43:50;;;;;;;7.70;4.07;;;;;;;;;;7403696;19;19990;-80
2024/01/31 03:46:15;;;;;;;7.35;3.83;;;;;;;;;;7375928;19;20139;-81
2024/01/31 03:48:40;;;;;;;7.32;3.42;;;;;;;;;;7368821;19;20007;-80
2024/01/31 03:51:06;;;;;;;8.25;3.75;;;;;;;;;;7370650;19;20036;-81
2024/01/31 03:53:31;;;;;;;6.18;3.45;;;;;;;;;;7370658;19;19998;-82
2024/01/31 03:55:56;;;;;;;9.68;3.63;;;;;;;;;;7392376;19;20033;-81
2024/01/31 03:58:22;;;;;;;8.00;3.65;;;;;;;;;;7370988;19;20006;-81
2024/01/31 04:00:47;;;;;;;8.07;3.58;;;;;;;;;;7371058;19;20294;-81
2024/01/31 04:03:13;;;;;;;7.88;3.90;;;;;;;;;;7371670;19;20019;-81
2024/01/31 04:05:38;;;;;;;7.10;3.60;;;;;;;;;;7371666;19;20015;-81
2024/01/31 04:08:04;;;;;;;8.45;3.53;;;;;;;;;;7406000;19;20003;-81
2024/01/31 04:10:29;;;;;;;9.00;3.72;;;;;;;;;;7378852;19;20606;-81
2024/01/31 04:12:54;;;;;;;8.80;3.47;;;;;;;;;;7369330;19;20027;-81
2024/01/31 04:15:20;;;;;;;6.97;3.50;;;;;;;;;;7372046;19;20491;-81
2024/01/31 04:17:45;;;;;;;7.65;3.53;;;;;;;;;;7375466;19;20018;-81
2024/01/31 04:20:11;;;;;;;5.90;3.28;;;;;;;;;;7394358;19;20117;-81
2024/01/31 04:22:37;;;;;;;7.85;3.40;;;;;;;;;;7371161;19;20015;-81
2024/01/31 04:25:06;;;;;;;7.13;3.40;;;;;;;;;;7371758;19;20006;-81
2024/01/31 04:27:32;;;;;;;9.88;2.97;;;;;;;;;;7372644;19;20017;-81
2024/01/31 04:29:58;;;;;;;6.13;3.10;;;;;;;;;;7378133;19;20015;-81
2024/01/31 04:32:24;;;;;;;8.27;3.25;;;;;;;;;;7394981;19;20281;-82
2024/01/31 04:34:50;;;;;;;6.15;3.70;;;;;;;;;;7429740;19;20040;-81
2024/01/31 04:37:15;;;;;;;9.30;3.90;;;;;;;;;;7396876;19;21138;-81
2024/01/31 04:39:40;;;;;;;6.90;3.20;;;;;;;;;;7377168;19;20118;-81
2024/01/31 04:42:06;;;;;;;8.27;3.60;;;;;;;;;;7378411;19;20043;-82
2024/01/31 04:44:32;;;;;;;6.65;3.28;;;;;;;;;;7385896;19;20026;-82
2024/01/31 04:46:58;;;;;;;4.90;2.78;;;;;;;;;;7415445;19;20042;-82
2024/01/31 04:49:23;;;;;;;7.25;3.10;;;;;;;;;;7391484;19;20010;-82
2024/01/31 04:51:48;;;;;;;5.75;2.78;;;;;;;;;;7391085;19;20023;-82
2024/01/31 04:54:14;;;;;;;6.45;3.05;;;;;;;;;;7390487;19;20010;-82
2024/01/31 04:56:39;;;;;;;6.90;3.33;;;;;;;;;;7384839;19;20095;-81
2024/01/31 04:59:04;;;;;;;8.70;3.35;;;;;;;;;;7404770;19;20070;-81
2024/01/31 05:01:30;;;;;;;4.70;2.53;;;;;;;;;;7382748;19;19999;-81
2024/01/31 05:03:58;;;;;;;7.05;3.15;;;;;;;;;;7384895;19;19994;-82
2024/01/31 05:06:24;;;;;;;6.28;3.05;;;;;;;;;;7388111;19;20010;-82
2024/01/31 05:08:49;;;;;;;5.75;2.63;;;;;;;;;;7384031;19;20063;-81
2024/01/31 05:11:14;;;;;;;5.95;2.70;;;;;;;;;;7406883;19;20061;-82
2024/01/31 05:13:40;;;;;;;6.18;2.60;;;;;;;;;;7388048;19;20026;-82
2024/01/31 05:16:09;;;;;;;7.20;2.60;;;;;;;;;;7397938;19;20007;-82
2024/01/31 05:18:34;;;;;;;4.63;2.63;;;;;;;;;;7403116;19;20035;-82
2024/01/31 05:21:00;;;;;;;5.18;2.95;;;;;;;;;;7404614;19;19998;-81
2024/01/31 05:23:26;;;;;;;6.20;2.80;;;;;;;;;;7393374;19;20009;-82
2024/01/31 05:25:51;;;;;;;6.60;2.80;;;;;;;;;;7400579;19;20070;-82
2024/01/31 05:28:17;;;;;;;6.80;2.80;;;;;;;;;;7376723;19;20708;-81
2024/01/31 05:30:42;;;;;;;5.97;2.75;;;;;;;;;;7384119;19;20055;-82
2024/01/31 05:33:07;;;;;;;6.70;2.60;;;;;;;;;;7376743;19;20070;-82
2024/01/31 05:35:35;;;;;;;4.60;2.47;;;;;;;;;;7377439;19;20014;-82
2024/01/31 05:38:02;;;;;;;5.82;2.50;;;;;;;;;;7397472;19;20516;-82
2024/01/31 05:40:27;;;;;;;5.85;2.67;;;;;;;;;;7371720;19;20050;-82
2024/01/31 05:42:53;;;;;;;4.72;2.40;;;;;;;;;;7374642;19;20406;-81
2024/01/31 05:45:18;;;;;;;6.50;3.03;;;;;;;;;;7380987;19;20015;-80
2024/01/31 05:47:43;;;;;;;6.60;2.97;;;;;;;;;;7375443;19;20002;-80
2024/01/31 05:50:09;;;;;;;4.25;2.25;;;;;;;;;;7391684;19;20002;-72
2024/01/31 05:52:35;;;;;;;5.78;2.60;;;;;;;;;;7367503;19;20027;-72
2024/01/31 05:55:00;;;;;;;6.15;2.80;;;;;;;;;;7367037;19;20085;-72
2024/01/31 05:57:26;;;;;;;5.00;3.13;;;;;;;;;;7373659;19;20014;-82
2024/01/31 05:59:51;;;;;;;7.18;3.20;;;;;;;;;;7374171;19;20006;-82
2024/01/31 06:02:16;;;;;;;6.15;2.80;;;;;;;;;;7397283;19;20006;-82
2024/01/31 06:04:42;;;;;;;7.35;3.67;;;;;;;;;;7375253;19;20010;-81
2024/01/31 06:07:07;;;;;;;6.97;3.30;;;;;;;;;;7377551;19;20006;-81
2024/01/31 06:09:33;;;;;;;4.72;2.83;;;;;;;;;;7376559;19;20002;-83
2024/01/31 06:11:58;;;;;;;6.35;3.05;;;;;;;;;;7377488;19;20003;-81
2024/01/31 06:14:23;;;;;;;7.72;3.47;;;;;;;;;;7374468;19;20001;-81
2024/01/31 06:16:49;;;;;;;9.68;3.60;;;;;;;;;;7396843;19;20002;-82
2024/01/31 06:19:14;;;;;;;21.05;10.98;;;;;;;;;;7374371;19;20002;-79
2024/01/31 06:21:40;;;;;;;25.95;13.93;;;;;;;;;;7365615;19;20019;-82
2024/01/31 06:24:05;;;;;;;10.85;4.38;;;;;;;;;;7368226;19;20007;-85
2024/01/31 06:26:32;;;;;;;6.57;3.05;;;;;;;;;;7374343;19;19994;-80
2024/01/31 06:28:58;;;;;;;6.93;3.40;;;;;;;;;;7400765;19;20002;-82
2024/01/31 06:31:28;;;;;;;6.93;3.10;;;;;;;;;;7383187;19;20502;-80
2024/01/31 06:33:54;;;;;;;7.33;3.43;;;;;;;;;;7399374;19;20006;-83
2024/01/31 06:36:20;;;;;;;7.60;3.50;;;;;;;;;;7396416;19;20014;-83
2024/01/31 06:38:46;;;;;;;8.75;3.53;;;;;;;;;;7393113;19;20014;-80
2024/01/31 06:41:13;;;;;;;9.27;3.55;;;;;;;;;;7417831;19;19990;-82
2024/01/31 06:43:39;;;;;;;9.95;3.65;;;;;;;;;;7392285;19;20013;-82
2024/01/31 06:46:04;;;;;;;9.00;3.72;;;;;;;;;;7383729;19;20038;-81
2024/01/31 06:48:29;;;;;;;7.15;3.88;;;;;;;;;;7387139;19;20018;-79
2024/01/31 06:50:56;;;;;;;9.35;4.28;;;;;;;;;;7379416;19;20010;-81
2024/01/31 06:53:23;;;;;;;8.52;3.75;;;;;;;;;;7380035;19;19999;-80
2024/01/31 06:55:49;;;;;;;8.48;4.00;;;;;;;;;;7407451;19;20332;-81
2024/01/31 06:58:14;;;;;;;11.13;4.15;;;;;;;;;;7383873;19;20034;-80
2024/01/31 07:00:40;;;;;;;6.80;3.72;;;;;;;;;;7379951;19;20006;-81
2024/01/31 07:03:05;;;;;;;7.05;4.05;;;;;;;;;;7380280;19;20013;-81
2024/01/31 07:05:30;;;;;;;24.15;13.20;;;;;;;;;;7375982;19;20002;-81
2024/01/31 07:07:56;;;;;;;75.38;38.25;;;;;;;;;;7396004;19;19991;-82
2024/01/31 07:10:21;;;;;;;12.38;6.63;;;;;;;;;;7372401;19;20003;-79
2024/01/31 07:12:46;;;;;;;9.63;3.85;;;;;;;;;;7371784;19;20492;-80
2024/01/31 07:15:12;;;;;;;7.65;4.25;;;;;;;;;;7370602;19;20010;-83
2024/01/31 07:17:37;;;;;;;9.65;4.35;;;;;;;;;;7371571;19;20044;-79
2024/01/31 07:20:08;;;;;;;10.50;4.47;;;;;;;;;;7389630;19;19999;-80
2024/01/31 07:22:33;;;;;;;7.63;4.30;;;;;;;;;;7368988;19;20006;-82
2024/01/31 07:24:58;;;;;;;10.93;5.60;;;;;;;;;;7374577;19;20002;-80
2024/01/31 07:27:25;;;;;;;11.80;5.55;;;;;;;;;;7371197;19;19998;-81
2024/01/31 07:29:50;;;;;;;12.98;6.25;;;;;;;;;;7369747;19;20105;-79
2024/01/31 07:32:15;;;;;;;13.60;6.10;;;;;;;;;;7396607;19;19999;-79
2024/01/31 07:34:41;;;;;;;11.13;5.32;;;;;;;;;;7370477;19;20009;-80
2024/01/31 07:37:06;;;;;;;11.05;5.10;;;;;;;;;;7369783;19;20010;-82
2024/01/31 07:39:32;;;;;;;8.50;4.50;;;;;;;;;;7377780;19;20073;-81
2024/01/31 07:41:57;;;;;;;10.73;5.32;;;;;;;;;;7373078;19;20017;-83
2024/01/31 07:44:23;;;;;;;12.07;5.70;;;;;;;;;;7370661;19;20070;-80
2024/01/31 07:46:48;;;;;;;12.52;5.88;;;;;;;;;;7394466;19;20058;-81
2024/01/31 07:49:14;;;;;;;13.95;6.07;;;;;;;;;;7371469;19;19998;-79
2024/01/31 07:51:43;;;;;;;11.68;5.65;;;;;;;;;;7384582;19;20011;-80
2024/01/31 07:54:08;;;;;;;10.98;5.63;;;;;;;;;;7383469;19;20006;-84
2024/01/31 07:56:34;;;;;;;31.55;17.73;;;;;;;;;;7393814;19;19998;-79
2024/01/31 07:58:59;;;;;;;16.83;8.68;;;;;;;;;;7416705;19;20002;-82
2024/01/31 08:01:24;;;;;;;12.25;5.63;;;;;;;;;;7374352;19;20037;-80
2024/01/31 08:03:50;;;;;;;13.82;5.80;;;;;;;;;;7378025;19;20002;-83
2024/01/31 08:06:15;;;;;;;11.52;5.38;;;;;;;;;;7381209;19;19999;-84
2024/01/31 08:08:42;;;;;;;13.55;6.70;;;;;;;;;;7387668;19;20098;-82
2024/01/31 08:11:07;;;;;;;11.00;5.80;;;;;;;;;;7400535;19;20034;-80
2024/01/31 08:13:34;;;;;;;9.07;5.20;;;;;;;;;;7368479;19;20003;-79
2024/01/31 08:15:59;;;;;;;8.35;4.20;;;;;;;;;;7374311;19;20024;-81
2024/01/31 08:18:25;;;;;;;10.10;4.40;;;;;;;;;;7370673;19;20070;-81
2024/01/31 08:20:50;;;;;;;10.65;4.43;;;;;;;;;;7369143;19;20357;-81
2024/01/31 08:23:15;;;;;;;8.35;4.15;;;;;;;;;;7392827;19;20005;-80
2024/01/31 08:25:41;;;;;;;9.20;4.70;;;;;;;;;;7373420;19;20010;-80
2024/01/31 08:28:06;;;;;;;8.55;4.50;;;;;;;;;;7373160;19;20017;-80
2024/01/31 08:30:31;;;;;;;8.13;3.85;;;;;;;;;;7373662;19;20056;-78
2024/01/31 08:32:57;;;;;;;7.88;3.58;;;;;;;;;;7373713;19;20044;-80
2024/01/31 08:35:22;;;;;;;7.32;3.60;;;;;;;;;;7373173;19;20003;-80
2024/01/31 08:37:48;;;;;;;6.88;3.60;;;;;;;;;;7392377;19;20267;-80
2024/01/31 08:40:14;;;;;;;7.50;3.88;;;;;;;;;;7370223;19;20014;-78
2024/01/31 08:42:40;;;;;;;7.57;3.50;;;;;;;;;;7367460;19;20582;-81
2024/01/31 08:45:09;;;;;;;7.38;3.00;;;;;;;;;;7367186;19;20002;-78
2024/01/31 08:47:35;;;;;;;7.95;3.50;;;;;;;;;;7370430;19;20002;-80
2024/01/31 08:50:00;;;;;;;6.47;3.30;;;;;;;;;;7388034;19;20032;-81
2024/01/31 08:52:26;;;;;;;7.43;3.17;;;;;;;;;;7366717;19;20007;-80
2024/01/31 08:54:51;;;;;;;8.07;3.30;;;;;;;;;;7371119;19;20022;-82
2024/01/31 08:57:16;;;;;;;8.38;3.80;;;;;;;;;;7377340;19;20024;-79
2024/01/31 08:59:42;;;;;;;11.55;3.50;;;;;;;;;;7376660;19;20021;-80
2024/01/31 09:02:07;;;;;;;9.80;3.45;;;;;;;;;;7393565;19;20005;-78
2024/01/31 09:04:33;;;;;;;7.78;3.35;;;;;;;;;;7367922;19;20005;-77
2024/01/31 09:06:58;;;;;;;7.82;3.60;;;;;;;;;;7362070;19;20490;-77
2024/01/31 09:09:24;;;;;;;7.78;3.90;;;;;;;;;;7368804;19;20010;-77
2024/01/31 09:11:49;;;;;;;8.13;3.55;;;;;;;;;;7366978;19;20018;-79
2024/01/31 09:14:14;;;;;;;7.60;2.88;;;;;;;;;;7383655;19;19998;-79
2024/01/31 09:16:41;;;;;;;5.72;2.60;;;;;;;;;;7373095;19;20085;-79
2024/01/31 09:19:07;;;;;;;5.65;2.67;;;;;;;;;;7370644;19;20002;-78
2024/01/31 09:21:32;;;;;;;3.78;2.50;;;;;;;;;;7370070;19;20062;-77
2024/01/31 09:23:58;;;;;;;5.13;2.30;;;;;;;;;;7369932;19;20007;-81
2024/01/31 09:26:23;;;;;;;3.92;2.20;;;;;;;;;;7374321;19;20002;-79
2024/01/31 09:28:49;;;;;;;6.80;2.60;;;;;;;;;;7392545;19;20022;-78
2024/01/31 09:31:25;;;;;;;3.72;2.20;;;;;;;;;;7372876;19;20025;-79
2024/01/31 09:33:52;;;;;;;3.92;2.10;;;;;;;;;;7367275;19;20442;-79
2024/01/31 09:36:18;;;;;;;5.75;2.10;;;;;;;;;;7375073;19;20013;-77
2024/01/31 09:38:47;;;;;;;7.25;2.30;;;;;;;;;;7371589;19;20010;-78
2024/01/31 09:41:12;;;;;;;4.05;2.10;;;;;;;;;;7388568;19;20034;-78
2024/01/31 09:43:37;;;;;;;4.20;2.05;;;;;;;;;;7368612;19;20937;-77
2024/01/31 09:46:04;;;;;;;4.38;2.35;;;;;;;;;;7374405;19;20392;-80
2024/01/31 09:48:31;;;;;;;3.28;2.05;;;;;;;;;;7370163;19;20793;-78
2024/01/31 09:50:58;;;;;;;5.55;2.20;;;;;;;;;;7369553;19;20017;-77
2024/01/31 09:53:23;;;;;;;7.85;4.07;;;;;;;;;;7371111;19;19999;-79
2024/01/31 09:55:54;;;;;;;9.88;5.95;;;;;;;;;;7394722;19;20595;-78
2024/01/31 09:58:20;;;;;;;5.82;2.50;;;;;;;;;;7377982;19;20014;-78
2024/01/31 10:00:46;;;;;;;5.88;2.50;;;;;;;;;;7374171;19;20116;-77
2024/01/31 10:03:11;;;;;;;5.10;2.30;;;;;;;;;;7384357;19;20090;-77
2024/01/31 10:05:37;;;;;;;6.70;2.50;;;;;;;;;;7396872;19;19998;-79
2024/01/31 10:08:04;;;;;;;6.32;2.22;;;;;;;;;;7422214;19;20006;-78
2024/01/31 10:10:30;;;;;;;6.85;2.60;;;;;;;;;;7401481;19;20042;-80
2024/01/31 10:12:55;;;;;;;5.90;2.38;;;;;;;;;;7395014;19;20006;-79
2024/01/31 10:15:21;;;;;;;4.43;2.10;;;;;;;;;;7392595;19;20002;-78
2024/01/31 10:17:46;;;;;;;5.85;2.20;;;;;;;;;;7391947;19;20013;-78
2024/01/31 10:20:13;;;;;;;5.68;2.10;;;;;;;;;;7413625;19;19998;-79
2024/01/31 10:22:39;;;;;;;6.45;2.50;;;;;;;;;;7381991;19;20319;-80
2024/01/31 10:25:08;;;;;;;5.93;2.80;;;;;;;;;;7376467;19;20505;-80
2024/01/31 10:27:35;;;;;;;4.57;2.78;;;;;;;;;;7368186;19;20006;-70
2024/01/31 10:30:03;;;;;;;5.70;2.75;;;;;;;;;;7362315;19;20368;-68
2024/01/31 10:32:30;;;;;;;4.25;2.03;;;;;;;;;;7364740;19;20078;-71
2024/01/31 10:34:57;;;;;;;2.65;1.73;;;;;;;;;;7384606;19;19994;-70
2024/01/31 10:37:26;;;;;;;3.90;1.80;;;;;;;;;;7364012;19;20031;-67
2024/01/31 10:39:52;;;;;;;5.05;1.90;;;;;;;;;;7362173;19;20085;-71
2024/01/31 10:42:18;;;;;;;2.65;1.60;;;;;;;;;;7373143;19;20007;-81
2024/01/31 10:44:46;;;;;;;3.17;1.50;;;;;;;;;;7374463;19;20059;-78
2024/01/31 10:47:12;;;;;;;3.88;1.67;;;;;;;;;;7402979;19;19995;-79
2024/01/31 10:49:37;;;;;;;2.88;1.52;;;;;;;;;;7396886;19;20350;-79
2024/01/31 10:52:07;;;;;;;3.88;1.70;;;;;;;;;;7395268;19;20014;-79
2024/01/31 10:54:37;;;;;;;4.67;1.53;;;;;;;;;;7372065;19;20484;-81
2024/01/31 10:57:04;;;;;;;3.38;1.50;;;;;;;;;;7373991;19;20259;-80
2024/01/31 10:59:36;;;;;;;2.30;1.63;;;;;;;;;;7380921;19;19995;-81
2024/01/31 11:02:03;;;;;;;27.67;17.25;;;;;;;;;;7398984;19;20002;-81
2024/01/31 11:04:28;;;;;;;10.43;5.93;;;;;;;;;;7376180;19;20011;-80
2024/01/31 11:06:59;;;;;;;3.25;1.50;;;;;;;;;;7379646;19;20405;-79
2024/01/31 11:09:26;;;;;;;3.28;1.48;;;;;;;;;;7375680;19;20014;-81
2024/01/31 11:12:11;;;;;;;3.85;1.60;;;;;;;;;;7376018;19;20010;-81
2024/01/31 11:14:39;;;;;;;4.55;1.88;;;;;;;;;;7375820;19;20475;-80
2024/01/31 11:17:17;;;;;;;4.57;1.60;;;;;;;;;;7415877;19;20002;-81
2024/01/31 11:19:53;;;;;;;3.10;1.50;;;;;;;;;;7392422;19;20014;-80
2024/01/31 11:22:19;;;;;;;2.78;1.75;;;;;;;;;;7389072;19;20043;-82
2024/01/31 11:24:46;;;;;;;5.55;1.70;;;;;;;;;;7388923;19;20019;-81
2024/01/31 11:27:13;;;;;;;3.65;1.60;;;;;;;;;;7386241;19;20010;-81
2024/01/31 11:29:38;;;;;;;4.32;1.80;;;;;;;;;;7381927;19;25665;-82
2024/01/31 11:32:05;;;;;;;4.03;1.60;;;;;;;;;;7404490;19;20479;-80
2024/01/31 11:34:32;;;;;;;3.25;1.60;;;;;;;;;;7378912;19;20796;-81
2024/01/31 11:36:57;;;;;;;2.80;1.52;;;;;;;;;;7379869;19;20006;-82
2024/01/31 11:39:23;;;;;;;3.08;1.40;;;;;;;;;;7378290;19;20089;-81
2024/01/31 11:41:49;;;;;;;5.70;1.63;;;;;;;;;;7381821;19;20026;-81
2024/01/31 11:44:14;;;;;;;4.05;1.80;;;;;;;;;;7398634;19;20006;-80
2024/01/31 11:46:40;;;;;;;5.68;2.08;;;;;;;;;;7383406;19;20041;-79
2024/01/31 11:49:05;;;;;;;9.38;1.92;;;;;;;;;;7377348;19;20520;-80
2024/01/31 11:51:31;;;;;;;5.43;1.92;;;;;;;;;;7381029;19;20010;-81
2024/01/31 11:53:56;;;;;;;4.18;1.70;;;;;;;;;;7375062;19;20487;-79
2024/01/31 11:56:21;;;;;;;4.07;1.80;;;;;;;;;;7373065;19;20349;-79
2024/01/31 11:58:47;;;;;;;2.95;1.90;;;;;;;;;;7394146;19;20002;-78
2024/01/31 12:01:13;;;;;;;4.50;1.80;;;;;;;;;;7373713;19;20727;-80
2024/01/31 12:03:39;;;;;;;4.43;1.83;;;;;;;;;;7381042;19;20003;-79
2024/01/31 12:06:05;;;;;;;3.80;2.10;;;;;;;;;;7381216;19;20472;-80
2024/01/31 12:08:33;;;;;;;5.07;2.00;;;;;;;;;;7373757;19;20017;-78
2024/01/31 12:10:58;;;;;;;5.53;1.90;;;;;;;;;;7399460;19;20462;-80
2024/01/31 12:13:24;;;;;;;3.75;1.80;;;;;;;;;;7378640;19;20015;-80
2024/01/31 12:15:49;;;;;;;4.20;2.00;;;;;;;;;;7377499;19;20065;-81
2024/01/31 12:18:15;;;;;;;6.45;2.40;;;;;;;;;;7375325;19;20609;-80
2024/01/31 12:20:41;;;;;;;4.68;1.85;;;;;;;;;;7377650;19;20014;-79
2024/01/31 12:23:06;;;;;;;5.78;1.92;;;;;;;;;;7409429;19;19991;-81
2024/01/31 12:25:31;;;;;;;3.90;1.67;;;;;;;;;;7393527;19;19994;-80
2024/01/31 12:27:57;;;;;;;3.40;1.90;;;;;;;;;;7394520;19;19994;-79
2024/01/31 12:30:23;;;;;;;18.08;10.98;;;;;;;;;;7388464;19;20010;-79
2024/01/31 12:32:49;;;;;;;6.07;2.70;;;;;;;;;;7376188;19;20007;-81
2024/01/31 12:35:14;;;;;;;2.92;1.60;;;;;;;;;;7392605;19;20009;-82
2024/01/31 12:37:40;;;;;;;5.15;1.92;;;;;;;;;;7371967;19;20070;-80
2024/01/31 12:40:07;;;;;;;5.60;1.80;;;;;;;;;;7384322;19;19998;-80
2024/01/31 12:42:33;;;;;;;3.85;1.80;;;;;;;;;;7387884;19;20010;-79
2024/01/31 12:44:58;;;;;;;3.53;1.75;;;;;;;;;;7378950;19;19998;-79
2024/01/31 12:47:24;;;;;;;4.78;1.50;;;;;;;;;;7373373;19;20005;-80
2024/01/31 12:49:50;;;;;;;2.45;1.40;;;;;;;;;;7402539;19;20030;-78
2024/01/31 12:52:15;;;;;;;2.78;1.52;;;;;;;;;;7379495;19;19998;-79
2024/01/31 12:54:41;;;;;;;5.70;1.73;;;;;;;;;;7378302;19;20003;-80
2024/01/31 12:57:07;;;;;;;3.10;1.50;;;;;;;;;;7377452;19;20559;-80
2024/01/31 12:59:32;;;;;;;3.97;1.60;;;;;;;;;;7380580;19;20001;-78
2024/01/31 13:01:58;;;;;;;3.08;1.55;;;;;;;;;;7410208;19;20044;-78
2024/01/31 13:04:23;;;;;;;3.05;1.50;;;;;;;;;;7392688;19;20003;-78
2024/01/31 13:06:49;;;;;;;2.65;1.40;;;;;;;;;;7388764;19;20006;-78
2024/01/31 13:09:15;;;;;;;4.43;1.40;;;;;;;;;;7391473;19;20437;-78
2024/01/31 13:11:40;;;;;;;1.70;1.30;;;;;;;;;;7386010;19;20003;-78
2024/01/31 13:14:05;;;;;;;4.95;1.60;;;;;;;;;;7405063;19;20447;-81
2024/01/31 13:16:33;;;;;;;3.30;1.40;;;;;;;;;;7385044;19;20066;-79
2024/01/31 13:18:59;;;;;;;3.83;1.50;;;;;;;;;;7381081;19;20030;-78
2024/01/31 13:21:25;;;;;;;3.22;1.60;;;;;;;;;;7378756;19;20447;-77
2024/01/31 13:23:52;;;;;;;5.00;1.50;;;;;;;;;;7381032;19;20011;-77
2024/01/31 13:26:18;;;;;;;3.55;1.60;;;;;;;;;;7397904;19;19995;-80
2024/01/31 13:28:43;;;;;;;2.67;1.60;;;;;;;;;;7389646;19;19990;-79
2024/01/31 13:31:08;;;;;;;4.07;1.65;;;;;;;;;;7364820;19;20014;-77
2024/01/31 13:33:34;;;;;;;3.25;1.80;;;;;;;;;;7382416;19;20022;-79
2024/01/31 13:36:00;;;;;;;3.70;1.70;;;;;;;;;;7410414;19;20009;-79
2024/01/31 13:38:26;;;;;;;3.60;1.52;;;;;;;;;;7403141;19;20014;-79
2024/01/31 13:40:51;;;;;;;2.65;1.55;;;;;;;;;;7381442;19;20002;-80
2024/01/31 13:43:16;;;;;;;3.47;1.60;;;;;;;;;;7376222;19;20087;-81
2024/01/31 13:45:42;;;;;;;3.78;1.60;;;;;;;;;;7383029;19;20010;-81
2024/01/31 13:48:07;;;;;;;3.42;1.50;;;;;;;;;;7408919;19;20026;-81
2024/01/31 13:50:33;;;;;;;5.70;1.65;;;;;;;;;;7431708;19;20010;-80
2024/01/31 13:52:58;;;;;;;3.38;1.52;;;;;;;;;;7408039;19;20014;-81
2024/01/31 13:55:23;;;;;;;6.18;1.63;;;;;;;;;;7402979;19;19998;-80
2024/01/31 13:57:49;;;;;;;6.57;1.77;;;;;;;;;;7391256;19;20040;-82
2024/01/31 14:00:15;;;;;;;12.80;6.40;;;;;;;;;;7387029;19;20002;-83
2024/01/31 14:02:40;;;;;;;29.23;15.57;;;;;;;;;;7396977;19;20027;-82
2024/01/31 14:05:05;;;;;;;5.80;2.10;;;;;;;;;;7378672;19;20002;-81
2024/01/31 14:07:31;;;;;;;3.35;1.73;;;;;;;;;;7373166;19;20014;-80
2024/01/31 14:10:00;;;;;;;6.28;1.70;;;;;;;;;;7374788;19;20046;-82
2024/01/31 14:12:25;;;;;;;2.35;1.35;;;;;;;;;;7378302;19;20048;-80
2024/01/31 14:14:51;;;;;;;6.25;1.90;;;;;;;;;;7394600;19;20002;-82
2024/01/31 14:17:16;;;;;;;3.30;1.50;;;;;;;;;;7377806;19;20010;-83
2024/01/31 14:19:41;;;;;;;4.22;1.60;;;;;;;;;;7377311;19;20003;-81
2024/01/31 14:22:07;;;;;;;4.95;1.70;;;;;;;;;;7381402;19;20005;-81
2024/01/31 14:24:33;;;;;;;3.88;1.50;;;;;;;;;;7378241;19;20042;-81
2024/01/31 14:26:58;;;;;;;3.38;1.50;;;;;;;;;;7396582;19;20002;-82